sensor_id;sensor_type;location;lat;lon;timestamp;temperature;humidity
1992;DHT22;997;48.448;8.924;2024-02-21T00:01:45;5.80;99.90
1992;DHT22;997;48.448;8.924;2024-02-21T00:04:11;5.80;99.90
1992;DHT22;997;48.448;8.924;2024-02-21T00:06:36;5.70;99.90
1992;DHT22;997;48.448;8.924;2024-02-21T00:09:02;5.70;99.90
1992;DHT22;997;48.448;8.924;2024-02-21T00:11:28;5.70;99.90
1992;DHT22;997;48.448;8.924;2024-02-21T00:13:54;5.80;99.90
1992;DHT22;997;48.448;8.924;2024-02-21T00:16:19;5.80;99.90
1992;DHT22;997;48.448;8.924;2024-02-21T00:18:45;5.90;99.90
1992;DHT22;997;48.448;8.924;2024-02-21T00:21:11;6.00;99.90
1992;DHT22;997;48.448;8.924;2024-02-21T00:23:45;5.90;99.90
1992;DHT22;997;48.448;8.924;2024-02-21T00:26:15;6.00;99.90
1992;DHT22;997;48.448;8.924;2024-02-21T00:28:40;5.90;99.90
1992;DHT22;997;48.448;8.924;2024-02-21T00:31:06;5.90;99.90
1992;DHT22;997;48.448;8.924;2024-02-21T00:33:32;5.80;99.90
1992;DHT22;997;48.448;8.924;2024-02-21T00:35:57;5.80;99.90
1992;DHT22;997;48.448;8.924;2024-02-21T00:38:23;5.80;99.90
1992;DHT22;997;48.448;8.924;2024-02-21T00:40:49;5.70;99.90
1992;DHT22;997;48.448;8.924;2024-02-21T00:43:14;5.80;99.90
1992;DHT22;997;48.448;8.924;2024-02-21T00:45:40;5.80;99.90
1992;DHT22;997;48.448;8.924;2024-02-21T00:48:06;5.90;99.90
1992;DHT22;997;48.448;8.924;2024-02-21T00:50:31;5.90;99.90
1992;DHT22;997;48.448;8.924;2024-02-21T00:52:57;5.90;99.90
1992;DHT22;997;48.448;8.924;2024-02-21T00:55:23;5.90;99.90
1992;DHT22;997;48.448;8.924;2024-02-21T00:57:49;6.00;99.90
1992;DHT22;997;48.448;8.924;2024-02-21T01:00:15;6.00;99.90
1992;DHT22;997;48.448;8.924;2024-02-21T01:02:40;6.00;99.90
1992;DHT22;997;48.448;8.924;2024-02-21T01:05:06;6.00;99.90
1992;DHT22;997;48.448;8.924;2024-02-21T01:07:32;5.90;99.90
1992;DHT22;997;48.448;8.924;2024-02-21T01:09:58;5.90;99.90
1992;DHT22;997;48.448;8.924;2024-02-21T01:12:23;5.90;99.90
1992;DHT22;997;48.448;8.924;2024-02-21T01:14:49;5.90;99.90
1992;DHT22;997;48.448;8.924;2024-02-21T01:17:15;6.00;99.90
1992;DHT22;997;48.448;8.924;2024-02-21T01:19:41;5.90;99.90
1992;DHT22;997;48.448;8.924;2024-02-21T01:22:06;5.90;99.90
1992;DHT22;997;48.448;8.924;2024-02-21T01:24:32;5.70;99.90
1992;DHT22;997;48.448;8.924;2024-02-21T01:26:58;5.70;99.90
1992;DHT22;997;48.448;8.924;2024-02-21T01:29:23;5.70;99.90
1992;DHT22;997;48.448;8.924;2024-02-21T01:31:49;5.60;99.90
1992;DHT22;997;48.448;8.924;2024-02-21T01:34:14;5.60;99.90
1992;DHT22;997;48.448;8.924;2024-02-21T01:36:40;5.60;99.90
1992;DHT22;997;48.448;8.924;2024-02-21T01:39:07;5.50;99.90
1992;DHT22;997;48.448;8.924;2024-02-21T01:41:33;5.40;99.90
1992;DHT22;997;48.448;8.924;2024-02-21T01:43:58;5.50;99.90
1992;DHT22;997;48.448;8.924;2024-02-21T01:46:24;5.40;99.90
1992;DHT22;997;48.448;8.924;2024-02-21T01:48:55;5.40;99.90
1992;DHT22;997;48.448;8.924;2024-02-21T01:51:21;5.40;99.90
1992;DHT22;997;48.448;8.924;2024-02-21T01:53:47;5.50;99.90
1992;DHT22;997;48.448;8.924;2024-02-21T01:56:13;5.40;99.90
1992;DHT22;997;48.448;8.924;2024-02-21T01:58:40;5.50;99.90
1992;DHT22;997;48.448;8.924;2024-02-21T02:01:07;5.40;99.90
1992;DHT22;997;48.448;8.924;2024-02-21T02:03:34;5.40;99.90
1992;DHT22;997;48.448;8.924;2024-02-21T02:06:00;5.30;99.90
1992;DHT22;997;48.448;8.924;2024-02-21T02:08:26;5.30;99.90
1992;DHT22;997;48.448;8.924;2024-02-21T02:10:52;5.30;99.90
1992;DHT22;997;48.448;8.924;2024-02-21T02:13:18;5.40;99.90
1992;DHT22;997;48.448;8.924;2024-02-21T02:15:44;5.40;99.90
1992;DHT22;997;48.448;8.924;2024-02-21T02:18:11;5.40;99.90
1992;DHT22;997;48.448;8.924;2024-02-21T02:20:37;5.40;99.90
1992;DHT22;997;48.448;8.924;2024-02-21T02:25:52;5.50;99.90
1992;DHT22;997;48.448;8.924;2024-02-21T02:28:18;5.60;99.90
1992;DHT22;997;48.448;8.924;2024-02-21T02:30:44;5.60;99.90
1992;DHT22;997;48.448;8.924;2024-02-21T02:33:10;5.70;99.90
1992;DHT22;997;48.448;8.924;2024-02-21T02:35:36;5.70;99.90
1992;DHT22;997;48.448;8.924;2024-02-21T02:38:03;5.70;99.90
1992;DHT22;997;48.448;8.924;2024-02-21T02:40:29;5.80;99.90
1992;DHT22;997;48.448;8.924;2024-02-21T02:42:54;5.70;99.90
1992;DHT22;997;48.448;8.924;2024-02-21T02:45:22;5.70;99.90
1992;DHT22;997;48.448;8.924;2024-02-21T02:47:52;5.70;99.90
1992;DHT22;997;48.448;8.924;2024-02-21T02:50:19;5.60;99.90
1992;DHT22;997;48.448;8.924;2024-02-21T02:52:45;5.60;99.90
1992;DHT22;997;48.448;8.924;2024-02-21T02:55:10;5.60;99.90
1992;DHT22;997;48.448;8.924;2024-02-21T02:57:36;5.50;99.90
1992;DHT22;997;48.448;8.924;2024-02-21T03:00:02;5.50;99.90
1992;DHT22;997;48.448;8.924;2024-02-21T03:02:28;5.50;99.90
1992;DHT22;997;48.448;8.924;2024-02-21T03:04:54;5.50;99.90
1992;DHT22;997;48.448;8.924;2024-02-21T03:07:20;5.60;99.90
1992;DHT22;997;48.448;8.924;2024-02-21T03:09:45;5.70;99.90
1992;DHT22;997;48.448;8.924;2024-02-21T03:12:11;5.70;99.90
1992;DHT22;997;48.448;8.924;2024-02-21T03:14:37;5.90;99.90
1992;DHT22;997;48.448;8.924;2024-02-21T03:17:03;6.00;99.90
1992;DHT22;997;48.448;8.924;2024-02-21T03:19:30;6.10;99.90
1992;DHT22;997;48.448;8.924;2024-02-21T03:21:55;6.10;99.90
1992;DHT22;997;48.448;8.924;2024-02-21T03:24:21;6.20;99.90
1992;DHT22;997;48.448;8.924;2024-02-21T03:26:47;6.10;99.90
1992;DHT22;997;48.448;8.924;2024-02-21T03:29:14;6.10;99.90
1992;DHT22;997;48.448;8.924;2024-02-21T03:31:40;6.10;99.90
1992;DHT22;997;48.448;8.924;2024-02-21T03:34:06;6.00;99.90
1992;DHT22;997;48.448;8.924;2024-02-21T03:36:32;6.00;99.90
1992;DHT22;997;48.448;8.924;2024-02-21T03:38:57;5.90;99.90
1992;DHT22;997;48.448;8.924;2024-02-21T03:41:23;5.90;99.90
1992;DHT22;997;48.448;8.924;2024-02-21T03:43:49;5.90;99.90
1992;DHT22;997;48.448;8.924;2024-02-21T03:46:15;5.80;99.90
1992;DHT22;997;48.448;8.924;2024-02-21T03:48:41;5.80;99.90
1992;DHT22;997;48.448;8.924;2024-02-21T03:51:07;5.90;99.90
1992;DHT22;997;48.448;8.924;2024-02-21T03:53:32;5.90;99.90
1992;DHT22;997;48.448;8.924;2024-02-21T03:56:01;5.90;99.90
1992;DHT22;997;48.448;8.924;2024-02-21T03:58:28;5.90;99.90
1992;DHT22;997;48.448;8.924;2024-02-21T04:00:54;5.90;99.90
1992;DHT22;997;48.448;8.924;2024-02-21T04:03:20;5.90;99.90
1992;DHT22;997;48.448;8.924;2024-02-21T04:05:45;5.90;99.90
1992;DHT22;997;48.448;8.924;2024-02-21T04:08:11;6.00;99.90
1992;DHT22;997;48.448;8.924;2024-02-21T04:10:37;6.00;99.90
1992;DHT22;997;48.448;8.924;2024-02-21T04:13:03;6.10;99.90
1992;DHT22;997;48.448;8.924;2024-02-21T04:15:29;6.10;99.90
1992;DHT22;997;48.448;8.924;2024-02-21T04:17:55;6.00;99.90
1992;DHT22;997;48.448;8.924;2024-02-21T04:20:20;6.00;99.90
1992;DHT22;997;48.448;8.924;2024-02-21T04:22:46;5.80;99.90
1992;DHT22;997;48.448;8.924;2024-02-21T04:25:12;5.60;99.90
1992;DHT22;997;48.448;8.924;2024-02-21T04:27:39;5.60;99.90
1992;DHT22;997;48.448;8.924;2024-02-21T04:30:05;5.60;99.90
1992;DHT22;997;48.448;8.924;2024-02-21T04:32:31;5.60;99.90
1992;DHT22;997;48.448;8.924;2024-02-21T04:34:57;5.60;99.90
1992;DHT22;997;48.448;8.924;2024-02-21T04:37:23;5.60;99.90
1992;DHT22;997;48.448;8.924;2024-02-21T04:39:50;5.60;99.90
1992;DHT22;997;48.448;8.924;2024-02-21T04:42:15;5.50;99.90
1992;DHT22;997;48.448;8.924;2024-02-21T04:44:41;5.50;99.90
1992;DHT22;997;48.448;8.924;2024-02-21T04:47:07;5.60;99.90
1992;DHT22;997;48.448;8.924;2024-02-21T04:49:33;5.60;99.90
1992;DHT22;997;48.448;8.924;2024-02-21T04:51:59;5.70;99.90
1992;DHT22;997;48.448;8.924;2024-02-21T04:54:24;5.80;99.90
1992;DHT22;997;48.448;8.924;2024-02-21T04:56:50;5.90;99.90
1992;DHT22;997;48.448;8.924;2024-02-21T04:59:16;5.90;99.90
1992;DHT22;997;48.448;8.924;2024-02-21T05:01:42;5.80;99.90
1992;DHT22;997;48.448;8.924;2024-02-21T05:04:07;5.90;99.90
1992;DHT22;997;48.448;8.924;2024-02-21T05:06:40;5.90;99.90
1992;DHT22;997;48.448;8.924;2024-02-21T05:09:07;5.90;99.90
1992;DHT22;997;48.448;8.924;2024-02-21T05:11:36;6.00;99.90
1992;DHT22;997;48.448;8.924;2024-02-21T05:14:03;6.10;99.90
1992;DHT22;997;48.448;8.924;2024-02-21T05:16:29;6.20;99.90
1992;DHT22;997;48.448;8.924;2024-02-21T05:18:55;6.20;99.90
1992;DHT22;997;48.448;8.924;2024-02-21T05:21:23;6.30;99.90
1992;DHT22;997;48.448;8.924;2024-02-21T05:23:49;6.30;99.90
1992;DHT22;997;48.448;8.924;2024-02-21T05:26:25;6.30;99.90
1992;DHT22;997;48.448;8.924;2024-02-21T05:28:50;6.30;99.90
1992;DHT22;997;48.448;8.924;2024-02-21T05:31:18;6.30;99.90
1992;DHT22;997;48.448;8.924;2024-02-21T05:33:44;6.40;99.90
1992;DHT22;997;48.448;8.924;2024-02-21T05:36:10;6.40;99.90
1992;DHT22;997;48.448;8.924;2024-02-21T05:38:36;6.40;99.90
1992;DHT22;997;48.448;8.924;2024-02-21T05:41:02;6.40;99.90
1992;DHT22;997;48.448;8.924;2024-02-21T05:43:28;6.40;99.90
1992;DHT22;997;48.448;8.924;2024-02-21T05:45:54;6.40;99.90
1992;DHT22;997;48.448;8.924;2024-02-21T05:48:20;6.40;99.90
1992;DHT22;997;48.448;8.924;2024-02-21T05:50:46;6.20;99.90
1992;DHT22;997;48.448;8.924;2024-02-21T05:53:11;6.10;99.90
1992;DHT22;997;48.448;8.924;2024-02-21T05:55:39;6.00;99.90
1992;DHT22;997;48.448;8.924;2024-02-21T05:58:05;6.00;99.90
1992;DHT22;997;48.448;8.924;2024-02-21T06:00:31;6.00;99.90
1992;DHT22;997;48.448;8.924;2024-02-21T06:02:57;5.90;99.90
1992;DHT22;997;48.448;8.924;2024-02-21T06:05:23;5.90;99.90
1992;DHT22;997;48.448;8.924;2024-02-21T06:07:49;5.90;99.90
1992;DHT22;997;48.448;8.924;2024-02-21T06:10:15;5.90;99.90
1992;DHT22;997;48.448;8.924;2024-02-21T06:12:40;5.90;99.90
1992;DHT22;997;48.448;8.924;2024-02-21T06:15:06;5.90;99.90
1992;DHT22;997;48.448;8.924;2024-02-21T06:17:32;5.80;99.90
1992;DHT22;997;48.448;8.924;2024-02-21T06:19:58;5.70;99.90
1992;DHT22;997;48.448;8.924;2024-02-21T06:22:23;5.70;99.90
1992;DHT22;997;48.448;8.924;2024-02-21T06:24:49;5.60;99.90
1992;DHT22;997;48.448;8.924;2024-02-21T06:27:15;5.60;99.90
1992;DHT22;997;48.448;8.924;2024-02-21T06:29:42;5.50;99.90
1992;DHT22;997;48.448;8.924;2024-02-21T06:32:07;5.50;99.90
1992;DHT22;997;48.448;8.924;2024-02-21T06:34:33;5.60;99.90
1992;DHT22;997;48.448;8.924;2024-02-21T06:36:59;5.70;99.90
1992;DHT22;997;48.448;8.924;2024-02-21T06:39:24;5.60;99.90
1992;DHT22;997;48.448;8.924;2024-02-21T06:41:50;5.70;99.90
1992;DHT22;997;48.448;8.924;2024-02-21T06:44:19;5.70;99.90
1992;DHT22;997;48.448;8.924;2024-02-21T06:46:45;5.80;99.90
1992;DHT22;997;48.448;8.924;2024-02-21T06:49:11;5.80;99.90
1992;DHT22;997;48.448;8.924;2024-02-21T06:51:44;5.80;99.90
1992;DHT22;997;48.448;8.924;2024-02-21T06:54:10;5.80;99.90
1992;DHT22;997;48.448;8.924;2024-02-21T06:56:37;5.80;99.90
1992;DHT22;997;48.448;8.924;2024-02-21T06:59:03;5.80;99.90
1992;DHT22;997;48.448;8.924;2024-02-21T07:01:29;5.70;99.90
1992;DHT22;997;48.448;8.924;2024-02-21T07:03:55;5.70;99.90
1992;DHT22;997;48.448;8.924;2024-02-21T07:06:21;5.60;99.90
1992;DHT22;997;48.448;8.924;2024-02-21T07:08:47;5.60;99.90
1992;DHT22;997;48.448;8.924;2024-02-21T07:11:13;5.50;99.90
1992;DHT22;997;48.448;8.924;2024-02-21T07:13:38;5.50;99.90
1992;DHT22;997;48.448;8.924;2024-02-21T07:16:04;5.60;99.90
1992;DHT22;997;48.448;8.924;2024-02-21T07:18:30;5.50;99.90
1992;DHT22;997;48.448;8.924;2024-02-21T07:20:56;5.50;99.90
1992;DHT22;997;48.448;8.924;2024-02-21T07:23:22;5.50;99.90
1992;DHT22;997;48.448;8.924;2024-02-21T07:25:47;5.50;99.90
1992;DHT22;997;48.448;8.924;2024-02-21T07:28:13;5.60;99.90
1992;DHT22;997;48.448;8.924;2024-02-21T07:30:39;5.60;99.90
1992;DHT22;997;48.448;8.924;2024-02-21T07:33:05;5.70;99.90
1992;DHT22;997;48.448;8.924;2024-02-21T07:35:32;5.80;99.90
1992;DHT22;997;48.448;8.924;2024-02-21T07:37:58;5.80;99.90
1992;DHT22;997;48.448;8.924;2024-02-21T07:40:23;5.90;99.90
1992;DHT22;997;48.448;8.924;2024-02-21T07:42:49;6.00;99.90
1992;DHT22;997;48.448;8.924;2024-02-21T07:45:15;6.10;99.90
1992;DHT22;997;48.448;8.924;2024-02-21T07:47:41;6.10;99.90
1992;DHT22;997;48.448;8.924;2024-02-21T07:50:07;6.10;99.90
1992;DHT22;997;48.448;8.924;2024-02-21T07:52:33;6.30;99.90
1992;DHT22;997;48.448;8.924;2024-02-21T07:54:58;6.40;99.90
1992;DHT22;997;48.448;8.924;2024-02-21T07:57:24;6.40;99.90
1992;DHT22;997;48.448;8.924;2024-02-21T07:59:50;6.40;99.90
1992;DHT22;997;48.448;8.924;2024-02-21T08:02:16;6.40;99.90
1992;DHT22;997;48.448;8.924;2024-02-21T08:04:42;6.50;99.90
1992;DHT22;997;48.448;8.924;2024-02-21T08:07:08;6.60;99.90
1992;DHT22;997;48.448;8.924;2024-02-21T08:09:34;6.60;99.90
1992;DHT22;997;48.448;8.924;2024-02-21T08:12:00;6.70;99.90
1992;DHT22;997;48.448;8.924;2024-02-21T08:14:26;6.80;99.90
1992;DHT22;997;48.448;8.924;2024-02-21T08:16:52;6.90;99.90
1992;DHT22;997;48.448;8.924;2024-02-21T08:19:21;7.00;99.90
1992;DHT22;997;48.448;8.924;2024-02-21T08:21:48;7.00;99.90
1992;DHT22;997;48.448;8.924;2024-02-21T08:24:16;7.10;99.90
1992;DHT22;997;48.448;8.924;2024-02-21T08:26:46;7.10;99.90
1992;DHT22;997;48.448;8.924;2024-02-21T08:29:12;7.20;99.90
1992;DHT22;997;48.448;8.924;2024-02-21T08:31:37;7.20;99.90
1992;DHT22;997;48.448;8.924;2024-02-21T08:34:03;7.20;99.90
1992;DHT22;997;48.448;8.924;2024-02-21T08:36:38;7.20;99.90
1992;DHT22;997;48.448;8.924;2024-02-21T08:39:04;7.20;99.90
1992;DHT22;997;48.448;8.924;2024-02-21T08:41:33;7.20;99.90
1992;DHT22;997;48.448;8.924;2024-02-21T08:43:59;7.30;99.90
1992;DHT22;997;48.448;8.924;2024-02-21T08:46:25;7.40;99.90
1992;DHT22;997;48.448;8.924;2024-02-21T08:48:52;7.50;99.90
1992;DHT22;997;48.448;8.924;2024-02-21T08:51:18;7.50;99.90
1992;DHT22;997;48.448;8.924;2024-02-21T08:53:44;7.50;99.90
1992;DHT22;997;48.448;8.924;2024-02-21T08:56:10;7.60;99.90
1992;DHT22;997;48.448;8.924;2024-02-21T08:58:38;7.60;99.90
1992;DHT22;997;48.448;8.924;2024-02-21T09:01:04;7.70;99.90
1992;DHT22;997;48.448;8.924;2024-02-21T09:03:34;7.70;99.90
1992;DHT22;997;48.448;8.924;2024-02-21T09:06:00;7.90;99.90
1992;DHT22;997;48.448;8.924;2024-02-21T09:08:26;7.80;99.90
1992;DHT22;997;48.448;8.924;2024-02-21T09:10:52;7.90;99.90
1992;DHT22;997;48.448;8.924;2024-02-21T09:13:18;8.00;99.90
1992;DHT22;997;48.448;8.924;2024-02-21T09:15:43;7.90;99.90
1992;DHT22;997;48.448;8.924;2024-02-21T09:18:09;8.10;99.90
1992;DHT22;997;48.448;8.924;2024-02-21T09:20:35;8.00;99.90
1992;DHT22;997;48.448;8.924;2024-02-21T09:23:01;8.10;99.90
1992;DHT22;997;48.448;8.924;2024-02-21T09:25:26;8.10;99.90
1992;DHT22;997;48.448;8.924;2024-02-21T09:27:54;8.20;99.90
1992;DHT22;997;48.448;8.924;2024-02-21T09:30:20;8.20;99.90
1992;DHT22;997;48.448;8.924;2024-02-21T09:32:46;8.40;99.90
1992;DHT22;997;48.448;8.924;2024-02-21T09:35:12;8.50;99.90
1992;DHT22;997;48.448;8.924;2024-02-21T09:37:39;8.50;99.90
1992;DHT22;997;48.448;8.924;2024-02-21T09:40:05;8.60;99.90
1992;DHT22;997;48.448;8.924;2024-02-21T09:42:37;8.50;99.90
1992;DHT22;997;48.448;8.924;2024-02-21T09:45:23;8.50;99.90
1992;DHT22;997;48.448;8.924;2024-02-21T09:50:53;8.70;99.90
1992;DHT22;997;48.448;8.924;2024-02-21T09:53:22;8.80;99.90
1992;DHT22;997;48.448;8.924;2024-02-21T09:55:50;8.90;99.90
1992;DHT22;997;48.448;8.924;2024-02-21T09:58:16;9.00;99.90
1992;DHT22;997;48.448;8.924;2024-02-21T10:00:42;9.10;99.90
1992;DHT22;997;48.448;8.924;2024-02-21T10:03:08;9.20;99.90
1992;DHT22;997;48.448;8.924;2024-02-21T10:05:37;9.30;99.90
1992;DHT22;997;48.448;8.924;2024-02-21T10:08:06;9.40;99.90
1992;DHT22;997;48.448;8.924;2024-02-21T10:10:45;9.60;99.90
1992;DHT22;997;48.448;8.924;2024-02-21T10:13:23;9.70;99.90
1992;DHT22;997;48.448;8.924;2024-02-21T10:15:59;9.90;99.90
1992;DHT22;997;48.448;8.924;2024-02-21T10:18:25;10.10;99.90
1992;DHT22;997;48.448;8.924;2024-02-21T10:21:00;10.20;99.90
1992;DHT22;997;48.448;8.924;2024-02-21T10:23:26;10.30;99.90
1992;DHT22;997;48.448;8.924;2024-02-21T10:25:52;10.40;99.90
1992;DHT22;997;48.448;8.924;2024-02-21T10:28:17;10.50;99.90
1992;DHT22;997;48.448;8.924;2024-02-21T10:30:51;10.50;99.90
1992;DHT22;997;48.448;8.924;2024-02-21T10:33:17;10.40;99.90
1992;DHT22;997;48.448;8.924;2024-02-21T10:35:46;10.50;99.90
1992;DHT22;997;48.448;8.924;2024-02-21T10:38:12;10.50;99.90
1992;DHT22;997;48.448;8.924;2024-02-21T10:40:38;10.50;99.90
1992;DHT22;997;48.448;8.924;2024-02-21T10:43:05;10.50;99.90
1992;DHT22;997;48.448;8.924;2024-02-21T10:45:36;10.60;99.90
1992;DHT22;997;48.448;8.924;2024-02-21T10:48:11;10.70;99.90
1992;DHT22;997;48.448;8.924;2024-02-21T10:51:12;10.80;99.90
1992;DHT22;997;48.448;8.924;2024-02-21T10:56:57;11.10;99.90
1992;DHT22;997;48.448;8.924;2024-02-21T10:59:24;11.10;99.90
1992;DHT22;997;48.448;8.924;2024-02-21T11:01:51;11.10;99.90
1992;DHT22;997;48.448;8.924;2024-02-21T11:04:18;11.00;99.90
1992;DHT22;997;48.448;8.924;2024-02-21T11:06:44;11.10;99.90
1992;DHT22;997;48.448;8.924;2024-02-21T11:09:11;11.20;99.90
1992;DHT22;997;48.448;8.924;2024-02-21T11:11:44;11.10;99.90
1992;DHT22;997;48.448;8.924;2024-02-21T11:16:40;11.20;99.90
1992;DHT22;997;48.448;8.924;2024-02-21T11:19:07;11.30;99.90
1992;DHT22;997;48.448;8.924;2024-02-21T11:21:37;11.50;99.90
1992;DHT22;997;48.448;8.924;2024-02-21T11:24:06;11.60;99.90
1992;DHT22;997;48.448;8.924;2024-02-21T11:26:32;11.60;99.90
1992;DHT22;997;48.448;8.924;2024-02-21T11:28:59;11.60;99.90
1992;DHT22;997;48.448;8.924;2024-02-21T11:31:26;11.60;99.90
1992;DHT22;997;48.448;8.924;2024-02-21T11:33:54;11.70;99.90
1992;DHT22;997;48.448;8.924;2024-02-21T11:36:27;11.70;99.90
1992;DHT22;997;48.448;8.924;2024-02-21T11:38:53;11.70;99.90
1992;DHT22;997;48.448;8.924;2024-02-21T11:41:19;11.80;99.90
1992;DHT22;997;48.448;8.924;2024-02-21T11:43:48;11.90;99.90
1992;DHT22;997;48.448;8.924;2024-02-21T11:46:14;11.80;99.90
1992;DHT22;997;48.448;8.924;2024-02-21T11:48:41;11.90;99.90
1992;DHT22;997;48.448;8.924;2024-02-21T11:51:09;12.10;99.90
1992;DHT22;997;48.448;8.924;2024-02-21T11:53:35;12.10;99.90
1992;DHT22;997;48.448;8.924;2024-02-21T11:56:01;12.00;99.90
1992;DHT22;997;48.448;8.924;2024-02-21T11:58:26;12.10;99.90
1992;DHT22;997;48.448;8.924;2024-02-21T12:00:52;12.30;99.90
1992;DHT22;997;48.448;8.924;2024-02-21T12:03:18;12.40;99.90
1992;DHT22;997;48.448;8.924;2024-02-21T12:05:44;12.60;99.90
1992;DHT22;997;48.448;8.924;2024-02-21T12:08:12;12.70;99.90
1992;DHT22;997;48.448;8.924;2024-02-21T12:10:37;12.70;99.90
1992;DHT22;997;48.448;8.924;2024-02-21T12:13:07;12.90;99.90
1992;DHT22;997;48.448;8.924;2024-02-21T12:15:33;12.80;99.90
1992;DHT22;997;48.448;8.924;2024-02-21T12:17:59;12.90;99.90
1992;DHT22;997;48.448;8.924;2024-02-21T12:20:25;13.00;99.90
1992;DHT22;997;48.448;8.924;2024-02-21T12:22:51;12.90;99.90
1992;DHT22;997;48.448;8.924;2024-02-21T12:25:19;12.80;99.90
1992;DHT22;997;48.448;8.924;2024-02-21T12:27:46;12.70;99.90
1992;DHT22;997;48.448;8.924;2024-02-21T12:30:12;12.60;99.90
1992;DHT22;997;48.448;8.924;2024-02-21T12:32:37;12.90;99.90
1992;DHT22;997;48.448;8.924;2024-02-21T12:35:05;12.90;99.90
1992;DHT22;997;48.448;8.924;2024-02-21T12:37:30;13.00;99.90
1992;DHT22;997;48.448;8.924;2024-02-21T12:39:56;13.10;99.90
1992;DHT22;997;48.448;8.924;2024-02-21T12:42:22;13.20;99.90
1992;DHT22;997;48.448;8.924;2024-02-21T12:44:49;13.30;99.90
1992;DHT22;997;48.448;8.924;2024-02-21T12:47:14;13.40;99.90
1992;DHT22;997;48.448;8.924;2024-02-21T12:49:40;13.60;99.90
1992;DHT22;997;48.448;8.924;2024-02-21T12:52:06;13.60;99.90
1992;DHT22;997;48.448;8.924;2024-02-21T12:54:32;13.50;99.90
1992;DHT22;997;48.448;8.924;2024-02-21T12:56:59;13.40;99.90
1992;DHT22;997;48.448;8.924;2024-02-21T12:59:28;13.50;99.90
1992;DHT22;997;48.448;8.924;2024-02-21T13:01:54;13.50;99.90
1992;DHT22;997;48.448;8.924;2024-02-21T13:04:20;13.70;99.90
1992;DHT22;997;48.448;8.924;2024-02-21T13:06:48;13.70;99.90
1992;DHT22;997;48.448;8.924;2024-02-21T13:09:14;13.80;99.90
1992;DHT22;997;48.448;8.924;2024-02-21T13:11:40;13.80;99.90
1992;DHT22;997;48.448;8.924;2024-02-21T13:14:07;13.80;99.90
1992;DHT22;997;48.448;8.924;2024-02-21T13:16:32;13.90;99.90
1992;DHT22;997;48.448;8.924;2024-02-21T13:19:05;14.00;99.90
1992;DHT22;997;48.448;8.924;2024-02-21T13:21:31;14.00;99.90
1992;DHT22;997;48.448;8.924;2024-02-21T13:23:57;14.20;99.90
1992;DHT22;997;48.448;8.924;2024-02-21T13:26:22;14.20;99.90
1992;DHT22;997;48.448;8.924;2024-02-21T13:28:48;14.10;99.90
1992;DHT22;997;48.448;8.924;2024-02-21T13:31:14;14.10;99.90
1992;DHT22;997;48.448;8.924;2024-02-21T13:33:42;14.10;99.90
1992;DHT22;997;48.448;8.924;2024-02-21T13:36:09;14.30;99.90
1992;DHT22;997;48.448;8.924;2024-02-21T13:38:35;14.20;99.90
1992;DHT22;997;48.448;8.924;2024-02-21T13:41:01;14.20;99.90
1992;DHT22;997;48.448;8.924;2024-02-21T13:43:26;14.20;99.90
1992;DHT22;997;48.448;8.924;2024-02-21T13:45:57;14.30;99.90
1992;DHT22;997;48.448;8.924;2024-02-21T13:48:26;14.40;99.90
1992;DHT22;997;48.448;8.924;2024-02-21T13:50:55;14.40;99.90
1992;DHT22;997;48.448;8.924;2024-02-21T13:53:21;14.50;99.90
1992;DHT22;997;48.448;8.924;2024-02-21T13:55:48;14.40;99.90
1992;DHT22;997;48.448;8.924;2024-02-21T13:58:14;14.30;99.90
1992;DHT22;997;48.448;8.924;2024-02-21T14:00:40;14.20;99.90
1992;DHT22;997;48.448;8.924;2024-02-21T14:03:06;14.30;99.90
1992;DHT22;997;48.448;8.924;2024-02-21T14:05:31;14.30;99.90
1992;DHT22;997;48.448;8.924;2024-02-21T14:07:57;14.20;99.00
1992;DHT22;997;48.448;8.924;2024-02-21T14:10:23;14.20;99.10
1992;DHT22;997;48.448;8.924;2024-02-21T14:12:49;14.10;98.80
1992;DHT22;997;48.448;8.924;2024-02-21T14:15:15;14.00;98.80
1992;DHT22;997;48.448;8.924;2024-02-21T14:17:42;13.80;99.10
1992;DHT22;997;48.448;8.924;2024-02-21T14:20:08;13.70;99.40
1992;DHT22;997;48.448;8.924;2024-02-21T14:22:34;13.80;99.80
1992;DHT22;997;48.448;8.924;2024-02-21T14:25:03;13.80;99.70
1992;DHT22;997;48.448;8.924;2024-02-21T14:27:31;13.70;98.80
1992;DHT22;997;48.448;8.924;2024-02-21T14:29:56;13.60;99.30
1992;DHT22;997;48.448;8.924;2024-02-21T14:32:22;13.50;98.60
1992;DHT22;997;48.448;8.924;2024-02-21T14:34:48;13.50;99.90
1992;DHT22;997;48.448;8.924;2024-02-21T14:37:14;13.50;99.50
1992;DHT22;997;48.448;8.924;2024-02-21T14:39:41;13.50;99.80
1992;DHT22;997;48.448;8.924;2024-02-21T14:42:07;13.50;99.30
1992;DHT22;997;48.448;8.924;2024-02-21T14:44:35;13.40;99.90
1992;DHT22;997;48.448;8.924;2024-02-21T14:47:01;13.40;99.60
1992;DHT22;997;48.448;8.924;2024-02-21T14:49:28;13.50;99.90
1992;DHT22;997;48.448;8.924;2024-02-21T14:51:54;13.50;99.90
1992;DHT22;997;48.448;8.924;2024-02-21T14:54:20;13.50;99.90
1992;DHT22;997;48.448;8.924;2024-02-21T14:56:45;13.60;99.90
1992;DHT22;997;48.448;8.924;2024-02-21T14:59:12;13.70;99.90
1992;DHT22;997;48.448;8.924;2024-02-21T15:01:38;13.60;99.90
1992;DHT22;997;48.448;8.924;2024-02-21T15:04:05;13.70;99.90
1992;DHT22;997;48.448;8.924;2024-02-21T15:06:31;13.60;99.90
1992;DHT22;997;48.448;8.924;2024-02-21T15:08:57;13.40;99.90
1992;DHT22;997;48.448;8.924;2024-02-21T15:11:24;13.30;99.90
1992;DHT22;997;48.448;8.924;2024-02-21T15:13:49;13.10;99.90
1992;DHT22;997;48.448;8.924;2024-02-21T15:16:15;13.20;99.90
1992;DHT22;997;48.448;8.924;2024-02-21T15:18:42;13.30;99.90
1992;DHT22;997;48.448;8.924;2024-02-21T15:21:07;13.50;99.90
1992;DHT22;997;48.448;8.924;2024-02-21T15:23:38;13.40;99.90
1992;DHT22;997;48.448;8.924;2024-02-21T15:26:04;13.40;99.90
1992;DHT22;997;48.448;8.924;2024-02-21T15:28:30;13.10;99.90
1992;DHT22;997;48.448;8.924;2024-02-21T15:30:56;13.00;99.90
1992;DHT22;997;48.448;8.924;2024-02-21T15:33:22;13.00;99.90
1992;DHT22;997;48.448;8.924;2024-02-21T15:35:48;12.90;99.90
1992;DHT22;997;48.448;8.924;2024-02-21T15:38:13;12.90;99.90
1992;DHT22;997;48.448;8.924;2024-02-21T15:40:39;12.90;99.90
1992;DHT22;997;48.448;8.924;2024-02-21T15:43:05;12.90;99.90
1992;DHT22;997;48.448;8.924;2024-02-21T15:45:30;12.90;99.90
1992;DHT22;997;48.448;8.924;2024-02-21T15:47:56;12.90;99.90
1992;DHT22;997;48.448;8.924;2024-02-21T15:50:22;12.90;99.90
1992;DHT22;997;48.448;8.924;2024-02-21T15:52:47;12.90;99.90
1992;DHT22;997;48.448;8.924;2024-02-21T15:55:13;12.90;99.90
1992;DHT22;997;48.448;8.924;2024-02-21T15:57:39;12.80;99.90
1992;DHT22;997;48.448;8.924;2024-02-21T16:00:08;12.90;99.90
1992;DHT22;997;48.448;8.924;2024-02-21T16:02:38;13.00;99.90
1992;DHT22;997;48.448;8.924;2024-02-21T16:05:09;12.90;99.90
1992;DHT22;997;48.448;8.924;2024-02-21T16:07:38;12.90;99.90
1992;DHT22;997;48.448;8.924;2024-02-21T16:10:05;12.90;99.90
1992;DHT22;997;48.448;8.924;2024-02-21T16:12:31;13.00;99.90
1992;DHT22;997;48.448;8.924;2024-02-21T16:14:57;13.00;99.90
1992;DHT22;997;48.448;8.924;2024-02-21T16:17:23;12.90;99.90
1992;DHT22;997;48.448;8.924;2024-02-21T16:19:48;12.90;99.90
1992;DHT22;997;48.448;8.924;2024-02-21T16:22:15;12.90;99.90
1992;DHT22;997;48.448;8.924;2024-02-21T16:24:41;12.80;99.90
1992;DHT22;997;48.448;8.924;2024-02-21T16:27:06;12.70;99.90
1992;DHT22;997;48.448;8.924;2024-02-21T16:29:37;12.70;99.90
1992;DHT22;997;48.448;8.924;2024-02-21T16:32:04;12.70;99.90
1992;DHT22;997;48.448;8.924;2024-02-21T16:34:30;12.60;99.90
1992;DHT22;997;48.448;8.924;2024-02-21T16:36:56;12.60;99.90